sensor_id;sensor_type;location;lat;lon;timestamp;pressure;altitude;pressure_sealevel;temperature;humidity
8641;BME280;4358;42.100;25.222;2023-04-28T00:02:07;100248.41;;;10.62;100.00
8641;BME280;4358;42.100;25.222;2023-04-28T00:04:34;100256.22;;;10.66;100.00
8641;BME280;4358;42.100;25.222;2023-04-28T00:07:01;100252.50;;;10.40;100.00
8641;BME280;4358;42.100;25.222;2023-04-28T00:09:29;100253.34;;;10.10;100.00
8641;BME280;4358;42.100;25.222;2023-04-28T00:11:56;100251.47;;;10.12;100.00
8641;BME280;4358;42.100;25.222;2023-04-28T00:14:24;100244.03;;;10.19;100.00
8641;BME280;4358;42.100;25.222;2023-04-28T00:16:51;100252.75;;;10.05;100.00
8641;BME280;4358;42.100;25.222;2023-04-28T00:19:21;100250.66;;;9.96;100.00
8641;BME280;4358;42.100;25.222;2023-04-28T00:21:48;100252.50;;;9.80;100.00
8641;BME280;4358;42.100;25.222;2023-04-28T00:24:15;100254.75;;;9.72;100.00
8641;BME280;4358;42.100;25.222;2023-04-28T00:26:43;100259.16;;;9.57;100.00
8641;BME280;4358;42.100;25.222;2023-04-28T00:29:10;100255.97;;;9.51;100.00
8641;BME280;4358;42.100;25.222;2023-04-28T00:31:37;100255.63;;;9.57;100.00
8641;BME280;4358;42.100;25.222;2023-04-28T00:34:04;100253.91;;;9.56;100.00
8641;BME280;4358;42.100;25.222;2023-04-28T00:36:31;100260.66;;;9.61;100.00
8641;BME280;4358;42.100;25.222;2023-04-28T00:38:58;100221.81;;;9.46;100.00
8641;BME280;4358;42.100;25.222;2023-04-28T00:41:25;100259.22;;;9.56;100.00
8641;BME280;4358;42.100;25.222;2023-04-28T00:43:53;100257.84;;;9.49;100.00
8641;BME280;4358;42.100;25.222;2023-04-28T00:46:21;100249.59;;;9.23;100.00
8641;BME280;4358;42.100;25.222;2023-04-28T00:48:50;100256.16;;;9.16;100.00
8641;BME280;4358;42.100;25.222;2023-04-28T00:51:16;100255.81;;;9.22;100.00
8641;BME280;4358;42.100;25.222;2023-04-28T00:53:44;100251.91;;;9.14;100.00
8641;BME280;4358;42.100;25.222;2023-04-28T00:56:10;100259.91;;;9.12;100.00
8641;BME280;4358;42.100;25.222;2023-04-28T00:58:37;100256.84;;;9.04;100.00
8641;BME280;4358;42.100;25.222;2023-04-28T01:01:08;100260.94;;;9.10;100.00
8641;BME280;4358;42.100;25.222;2023-04-28T01:03:38;100268.78;;;9.11;100.00
8641;BME280;4358;42.100;25.222;2023-04-28T01:06:06;100265.44;;;8.92;100.00
8641;BME280;4358;42.100;25.222;2023-04-28T01:08:35;100271.06;;;8.86;100.00
8641;BME280;4358;42.100;25.222;2023-04-28T01:11:03;100266.06;;;8.97;100.00
8641;BME280;4358;42.100;25.222;2023-04-28T01:13:29;100278.09;;;9.03;100.00
8641;BME280;4358;42.100;25.222;2023-04-28T01:15:56;100268.03;;;8.93;100.00
8641;BME280;4358;42.100;25.222;2023-04-28T01:18:25;100274.00;;;8.97;100.00
8641;BME280;4358;42.100;25.222;2023-04-28T01:20:52;100279.75;;;9.05;100.00
8641;BME280;4358;42.100;25.222;2023-04-28T01:23:18;100281.16;;;9.11;100.00
8641;BME280;4358;42.100;25.222;2023-04-28T01:25:47;100257.00;;;9.01;100.00
8641;BME280;4358;42.100;25.222;2023-04-28T01:28:13;100275.97;;;9.09;100.00
8641;BME280;4358;42.100;25.222;2023-04-28T01:30:40;100281.16;;;9.11;100.00
8641;BME280;4358;42.100;25.222;2023-04-28T01:33:07;100280.84;;;9.17;100.00
8641;BME280;4358;42.100;25.222;2023-04-28T01:35:34;100281.28;;;9.09;100.00
8641;BME280;4358;42.100;25.222;2023-04-28T01:38:01;100278.19;;;9.01;100.00
8641;BME280;4358;42.100;25.222;2023-04-28T01:40:27;100280.41;;;8.93;100.00
8641;BME280;4358;42.100;25.222;2023-04-28T01:42:56;100282.78;;;8.98;100.00
8641;BME280;4358;42.100;25.222;2023-04-28T01:45:23;100279.91;;;9.02;100.00
8641;BME280;4358;42.100;25.222;2023-04-28T01:47:50;100280.56;;;9.06;100.00
8641;BME280;4358;42.100;25.222;2023-04-28T01:50:17;100280.75;;;9.03;100.00
8641;BME280;4358;42.100;25.222;2023-04-28T01:52:44;100279.56;;;9.08;100.00
8641;BME280;4358;42.100;25.222;2023-04-28T01:55:11;100285.38;;;9.15;100.00
8641;BME280;4358;42.100;25.222;2023-04-28T01:57:37;100286.13;;;9.17;100.00
8641;BME280;4358;42.100;25.222;2023-04-28T02:00:07;100288.31;;;9.26;100.00
8641;BME280;4358;42.100;25.222;2023-04-28T02:02:34;100284.19;;;9.36;100.00
8641;BME280;4358;42.100;25.222;2023-04-28T02:05:01;100284.53;;;9.30;100.00
8641;BME280;4358;42.100;25.222;2023-04-28T02:07:28;100290.69;;;9.30;100.00
8641;BME280;4358;42.100;25.222;2023-04-28T02:09:54;100290.44;;;9.35;100.00
8641;BME280;4358;42.100;25.222;2023-04-28T02:12:21;100294.41;;;9.26;100.00
8641;BME280;4358;42.100;25.222;2023-04-28T02:14:48;100298.03;;;9.25;100.00
8641;BME280;4358;42.100;25.222;2023-04-28T02:17:17;100298.19;;;9.22;100.00
8641;BME280;4358;42.100;25.222;2023-04-28T02:19:43;100305.84;;;9.11;100.00
8641;BME280;4358;42.100;25.222;2023-04-28T02:22:10;100298.88;;;9.10;100.00
8641;BME280;4358;42.100;25.222;2023-04-28T02:24:37;100305.44;;;9.03;100.00
8641;BME280;4358;42.100;25.222;2023-04-28T02:27:04;100313.88;;;8.94;100.00
8641;BME280;4358;42.100;25.222;2023-04-28T02:29:31;100311.50;;;8.89;100.00
8641;BME280;4358;42.100;25.222;2023-04-28T02:31:58;100309.22;;;8.82;100.00
8641;BME280;4358;42.100;25.222;2023-04-28T02:34:26;100315.56;;;8.95;100.00
8641;BME280;4358;42.100;25.222;2023-04-28T02:36:53;100321.22;;;8.89;100.00
8641;BME280;4358;42.100;25.222;2023-04-28T02:39:19;100333.38;;;8.76;100.00
8641;BME280;4358;42.100;25.222;2023-04-28T02:41:49;100337.78;;;8.42;100.00
8641;BME280;4358;42.100;25.222;2023-04-28T02:44:17;100335.97;;;8.43;100.00
8641;BME280;4358;42.100;25.222;2023-04-28T02:46:43;100347.53;;;8.23;100.00
8641;BME280;4358;42.100;25.222;2023-04-28T02:49:10;100352.66;;;8.09;100.00
8641;BME280;4358;42.100;25.222;2023-04-28T02:51:39;100361.75;;;8.03;100.00
8641;BME280;4358;42.100;25.222;2023-04-28T02:54:05;100346.59;;;7.90;100.00
8641;BME280;4358;42.100;25.222;2023-04-28T02:56:33;100359.00;;;7.88;100.00
8641;BME280;4358;42.100;25.222;2023-04-28T02:59:01;100368.94;;;7.83;100.00
8641;BME280;4358;42.100;25.222;2023-04-28T03:01:28;100372.31;;;7.68;100.00
8641;BME280;4358;42.100;25.222;2023-04-28T03:03:55;100372.75;;;7.58;100.00
8641;BME280;4358;42.100;25.222;2023-04-28T03:06:22;100379.97;;;7.74;100.00
8641;BME280;4358;42.100;25.222;2023-04-28T03:08:50;100376.81;;;7.84;100.00
8641;BME280;4358;42.100;25.222;2023-04-28T03:11:17;100379.22;;;7.89;100.00
8641;BME280;4358;42.100;25.222;2023-04-28T03:13:43;100383.25;;;7.96;100.00
8641;BME280;4358;42.100;25.222;2023-04-28T03:16:10;100373.25;;;8.02;100.00
8641;BME280;4358;42.100;25.222;2023-04-28T03:18:37;100382.72;;;8.06;100.00
8641;BME280;4358;42.100;25.222;2023-04-28T03:21:04;100387.03;;;8.09;100.00
8641;BME280;4358;42.100;25.222;2023-04-28T03:23:30;100377.09;;;8.14;100.00
8641;BME280;4358;42.100;25.222;2023-04-28T03:25:59;100384.72;;;8.20;100.00
8641;BME280;4358;42.100;25.222;2023-04-28T03:28:26;100385.00;;;8.14;100.00
8641;BME280;4358;42.100;25.222;2023-04-28T03:30:52;100385.72;;;8.18;100.00
8641;BME280;4358;42.100;25.222;2023-04-28T03:33:19;100395.28;;;8.20;100.00
8641;BME280;4358;42.100;25.222;2023-04-28T03:35:46;100404.72;;;8.26;100.00
8641;BME280;4358;42.100;25.222;2023-04-28T03:38:13;100404.00;;;8.22;100.00
8641;BME280;4358;42.100;25.222;2023-04-28T03:40:41;100416.44;;;8.20;100.00
8641;BME280;4358;42.100;25.222;2023-04-28T03:43:09;100411.28;;;8.17;100.00
8641;BME280;4358;42.100;25.222;2023-04-28T03:45:36;100405.47;;;8.11;100.00
8641;BME280;4358;42.100;25.222;2023-04-28T03:48:03;100422.78;;;7.99;100.00
8641;BME280;4358;42.100;25.222;2023-04-28T03:50:30;100414.94;;;7.79;100.00
8641;BME280;4358;42.100;25.222;2023-04-28T03:52:57;100428.28;;;7.76;100.00
8641;BME280;4358;42.100;25.222;2023-04-28T03:55:24;100426.09;;;7.66;100.00
8641;BME280;4358;42.100;25.222;2023-04-28T03:57:51;100439.88;;;7.73;100.00
8641;BME280;4358;42.100;25.222;2023-04-28T04:00:20;100441.50;;;7.76;100.00
8641;BME280;4358;42.100;25.222;2023-04-28T04:02:46;100444.38;;;7.52;100.00
8641;BME280;4358;42.100;25.222;2023-04-28T04:05:13;100440.91;;;7.50;100.00
8641;BME280;4358;42.100;25.222;2023-04-28T04:07:40;100451.50;;;7.50;100.00
8641;BME280;4358;42.100;25.222;2023-04-28T04:10:08;100452.28;;;7.52;100.00
8641;BME280;4358;42.100;25.222;2023-04-28T04:12:35;100447.88;;;7.53;100.00
8641;BME280;4358;42.100;25.222;2023-04-28T04:15:02;100456.06;;;7.65;100.00
8641;BME280;4358;42.100;25.222;2023-04-28T04:17:30;100460.28;;;7.70;100.00
8641;BME280;4358;42.100;25.222;2023-04-28T04:19:57;100463.06;;;7.66;100.00
8641;BME280;4358;42.100;25.222;2023-04-28T04:22:24;100468.13;;;7.71;100.00
8641;BME280;4358;42.100;25.222;2023-04-28T04:24:51;100467.50;;;7.85;100.00
8641;BME280;4358;42.100;25.222;2023-04-28T04:27:17;100477.41;;;7.98;100.00
8641;BME280;4358;42.100;25.222;2023-04-28T04:29:44;100483.53;;;8.18;100.00
8641;BME280;4358;42.100;25.222;2023-04-28T04:32:11;100478.03;;;8.22;100.00
8641;BME280;4358;42.100;25.222;2023-04-28T04:34:39;100491.19;;;8.42;100.00
8641;BME280;4358;42.100;25.222;2023-04-28T04:37:07;100487.63;;;8.61;100.00
8641;BME280;4358;42.100;25.222;2023-04-28T04:39:34;100489.81;;;8.70;100.00
8641;BME280;4358;42.100;25.222;2023-04-28T04:42:01;100493.94;;;8.75;100.00
8641;BME280;4358;42.100;25.222;2023-04-28T04:44:28;100504.31;;;8.63;100.00
8641;BME280;4358;42.100;25.222;2023-04-28T04:46:55;100507.91;;;8.24;100.00
8641;BME280;4358;42.100;25.222;2023-04-28T04:49:22;100517.56;;;8.06;100.00
8641;BME280;4358;42.100;25.222;2023-04-28T04:51:50;100513.00;;;8.10;100.00
8641;BME280;4358;42.100;25.222;2023-04-28T04:54:17;100513.66;;;8.15;100.00
8641;BME280;4358;42.100;25.222;2023-04-28T04:56:44;100522.78;;;8.27;100.00
8641;BME280;4358;42.100;25.222;2023-04-28T04:59:11;100526.06;;;8.50;100.00
8641;BME280;4358;42.100;25.222;2023-04-28T05:01:38;100528.28;;;8.77;100.00
8641;BME280;4358;42.100;25.222;2023-04-28T05:04:05;100539.97;;;8.90;100.00
8641;BME280;4358;42.100;25.222;2023-04-28T05:06:32;100540.66;;;9.11;100.00
8641;BME280;4358;42.100;25.222;2023-04-28T05:09:00;100542.16;;;9.33;100.00
8641;BME280;4358;42.100;25.222;2023-04-28T05:11:27;100545.41;;;9.56;100.00
8641;BME280;4358;42.100;25.222;2023-04-28T05:13:54;100525.88;;;9.90;100.00
8641;BME280;4358;42.100;25.222;2023-04-28T05:16:21;100534.47;;;10.10;100.00
8641;BME280;4358;42.100;25.222;2023-04-28T05:18:47;100538.03;;;10.27;100.00
8641;BME280;4358;42.100;25.222;2023-04-28T05:21:15;100546.09;;;10.41;100.00
8641;BME280;4358;42.100;25.222;2023-04-28T05:23:42;100536.31;;;10.57;100.00
8641;BME280;4358;42.100;25.222;2023-04-28T05:26:10;100543.47;;;10.71;100.00
8641;BME280;4358;42.100;25.222;2023-04-28T05:28:38;100543.72;;;10.82;100.00
8641;BME280;4358;42.100;25.222;2023-04-28T05:31:05;100557.03;;;10.66;100.00
8641;BME280;4358;42.100;25.222;2023-04-28T05:33:32;100555.84;;;10.56;100.00
8641;BME280;4358;42.100;25.222;2023-04-28T05:35:59;100563.63;;;10.59;100.00
8641;BME280;4358;42.100;25.222;2023-04-28T05:38:26;100575.13;;;10.89;100.00
8641;BME280;4358;42.100;25.222;2023-04-28T05:40:53;100568.88;;;11.20;100.00
8641;BME280;4358;42.100;25.222;2023-04-28T05:43:21;100577.78;;;11.35;100.00
8641;BME280;4358;42.100;25.222;2023-04-28T05:45:48;100578.69;;;11.20;100.00
8641;BME280;4358;42.100;25.222;2023-04-28T05:48:15;100579.63;;;11.19;97.15
8641;BME280;4358;42.100;25.222;2023-04-28T05:50:42;100587.75;;;11.16;98.58
8641;BME280;4358;42.100;25.222;2023-04-28T05:53:09;100583.09;;;11.35;96.97
8641;BME280;4358;42.100;25.222;2023-04-28T05:55:36;100585.97;;;11.46;96.46
8641;BME280;4358;42.100;25.222;2023-04-28T05:58:03;100587.44;;;11.66;96.88
8641;BME280;4358;42.100;25.222;2023-04-28T06:00:31;100588.53;;;11.77;96.17
8641;BME280;4358;42.100;25.222;2023-04-28T06:02:58;100595.16;;;11.84;95.09
8641;BME280;4358;42.100;25.222;2023-04-28T06:05:25;100604.31;;;12.09;95.25
8641;BME280;4358;42.100;25.222;2023-04-28T06:07:52;100594.03;;;12.17;94.11
8641;BME280;4358;42.100;25.222;2023-04-28T06:10:20;100595.34;;;12.38;94.10
8641;BME280;4358;42.100;25.222;2023-04-28T06:12:47;100595.53;;;12.49;92.85
8641;BME280;4358;42.100;25.222;2023-04-28T06:15:14;100595.53;;;12.49;92.62
8641;BME280;4358;42.100;25.222;2023-04-28T06:17:42;100597.34;;;12.35;91.54
8641;BME280;4358;42.100;25.222;2023-04-28T06:20:10;100594.84;;;12.46;90.22
8641;BME280;4358;42.100;25.222;2023-04-28T06:22:38;100602.44;;;12.52;89.79
8641;BME280;4358;42.100;25.222;2023-04-28T06:25:06;100589.59;;;12.58;90.22
8641;BME280;4358;42.100;25.222;2023-04-28T06:27:33;100602.00;;;12.86;90.10
8641;BME280;4358;42.100;25.222;2023-04-28T06:30:00;100603.59;;;13.15;89.93
8641;BME280;4358;42.100;25.222;2023-04-28T06:32:27;100599.16;;;13.02;88.55
8641;BME280;4358;42.100;25.222;2023-04-28T06:34:55;100601.03;;;13.14;87.64
8641;BME280;4358;42.100;25.222;2023-04-28T06:37:21;100603.22;;;13.22;86.96
8641;BME280;4358;42.100;25.222;2023-04-28T06:39:48;100597.38;;;13.29;86.59
8641;BME280;4358;42.100;25.222;2023-04-28T06:42:16;100611.47;;;13.44;84.46
8641;BME280;4358;42.100;25.222;2023-04-28T06:44:44;100607.09;;;13.55;84.03
8641;BME280;4358;42.100;25.222;2023-04-28T06:47:12;100604.34;;;13.44;85.03
8641;BME280;4358;42.100;25.222;2023-04-28T06:49:39;100614.56;;;13.50;84.87
8641;BME280;4358;42.100;25.222;2023-04-28T06:52:09;100609.56;;;13.58;85.15
8641;BME280;4358;42.100;25.222;2023-04-28T06:54:36;100604.78;;;13.64;84.93
8641;BME280;4358;42.100;25.222;2023-04-28T06:57:03;100605.53;;;13.66;84.74
8641;BME280;4358;42.100;25.222;2023-04-28T06:59:30;100598.81;;;13.98;84.94
8641;BME280;4358;42.100;25.222;2023-04-28T07:01:57;100602.09;;;14.14;85.70
8641;BME280;4358;42.100;25.222;2023-04-28T07:04:24;100601.69;;;14.33;84.99
8641;BME280;4358;42.100;25.222;2023-04-28T07:06:51;100600.94;;;14.44;82.92
8641;BME280;4358;42.100;25.222;2023-04-28T07:09:20;100597.59;;;14.53;81.82
8641;BME280;4358;42.100;25.222;2023-04-28T07:11:47;100599.75;;;14.48;84.08
8641;BME280;4358;42.100;25.222;2023-04-28T07:14:13;100599.63;;;14.86;83.43
8641;BME280;4358;42.100;25.222;2023-04-28T07:16:40;100604.56;;;14.79;81.06
8641;BME280;4358;42.100;25.222;2023-04-28T07:19:07;100598.09;;;14.94;81.48
8641;BME280;4358;42.100;25.222;2023-04-28T07:21:34;100600.66;;;14.96;80.92
8641;BME280;4358;42.100;25.222;2023-04-28T07:24:01;100589.09;;;15.19;81.78
8641;BME280;4358;42.100;25.222;2023-04-28T07:26:29;100595.41;;;15.18;81.84
8641;BME280;4358;42.100;25.222;2023-04-28T07:28:56;100589.59;;;15.24;82.84
8641;BME280;4358;42.100;25.222;2023-04-28T07:31:23;100582.72;;;15.33;82.66
8641;BME280;4358;42.100;25.222;2023-04-28T07:33:50;100592.47;;;15.45;81.66
8641;BME280;4358;42.100;25.222;2023-04-28T07:36:17;100582.81;;;15.31;80.60
8641;BME280;4358;42.100;25.222;2023-04-28T07:38:44;100583.06;;;15.04;80.88
8641;BME280;4358;42.100;25.222;2023-04-28T07:41:11;100587.25;;;15.19;82.10
8641;BME280;4358;42.100;25.222;2023-04-28T07:43:39;100577.88;;;15.14;81.76
8641;BME280;4358;42.100;25.222;2023-04-28T07:46:06;100566.00;;;14.94;82.76
8641;BME280;4358;42.100;25.222;2023-04-28T07:48:34;100566.72;;;14.85;82.81
8641;BME280;4358;42.100;25.222;2023-04-28T07:51:01;100579.78;;;15.01;83.76
8641;BME280;4358;42.100;25.222;2023-04-28T07:53:27;100577.97;;;15.01;83.28
8641;BME280;4358;42.100;25.222;2023-04-28T07:55:54;100582.94;;;14.82;82.27
8641;BME280;4358;42.100;25.222;2023-04-28T07:58:21;100578.53;;;15.17;82.86
8641;BME280;4358;42.100;25.222;2023-04-28T08:00:49;100579.53;;;15.39;82.68
8641;BME280;4358;42.100;25.222;2023-04-28T08:03:16;100578.63;;;15.51;82.07
8641;BME280;4358;42.100;25.222;2023-04-28T08:05:43;100574.59;;;15.10;83.68
8641;BME280;4358;42.100;25.222;2023-04-28T08:08:10;100570.47;;;15.06;83.26
8641;BME280;4358;42.100;25.222;2023-04-28T08:10:37;100565.88;;;15.19;84.56
8641;BME280;4358;42.100;25.222;2023-04-28T08:13:06;100572.53;;;15.38;83.59
8641;BME280;4358;42.100;25.222;2023-04-28T08:15:33;100569.22;;;15.69;83.44
8641;BME280;4358;42.100;25.222;2023-04-28T08:18:02;100565.47;;;15.94;82.02
8641;BME280;4358;42.100;25.222;2023-04-28T08:20:29;100566.81;;;16.10;81.96
8641;BME280;4358;42.100;25.222;2023-04-28T08:22:57;100565.34;;;16.29;82.81
8641;BME280;4358;42.100;25.222;2023-04-28T08:25:24;100565.09;;;16.43;81.31
8641;BME280;4358;42.100;25.222;2023-04-28T08:27:51;100566.78;;;16.44;81.13
8641;BME280;4358;42.100;25.222;2023-04-28T08:30:20;100563.38;;;16.42;81.15
8641;BME280;4358;42.100;25.222;2023-04-28T08:32:47;100558.53;;;16.14;79.60
8641;BME280;4358;42.100;25.222;2023-04-28T08:35:15;100561.56;;;16.31;79.34
8641;BME280;4358;42.100;25.222;2023-04-28T08:37:43;100554.88;;;16.48;78.99
8641;BME280;4358;42.100;25.222;2023-04-28T08:40:11;100563.84;;;16.58;78.93
8641;BME280;4358;42.100;25.222;2023-04-28T08:42:37;100552.31;;;16.35;78.57
8641;BME280;4358;42.100;25.222;2023-04-28T08:45:05;100554.63;;;16.40;78.83
8641;BME280;4358;42.100;25.222;2023-04-28T08:47:34;100543.56;;;16.22;76.91
8641;BME280;4358;42.100;25.222;2023-04-28T08:50:03;100551.72;;;16.09;78.09
8641;BME280;4358;42.100;25.222;2023-04-28T08:52:32;100545.88;;;16.38;76.37
8641;BME280;4358;42.100;25.222;2023-04-28T08:55:01;100549.25;;;16.62;76.50
8641;BME280;4358;42.100;25.222;2023-04-28T08:57:34;100549.44;;;16.81;76.26
8641;BME280;4358;42.100;25.222;2023-04-28T09:00:04;100542.06;;;17.06;76.28
8641;BME280;4358;42.100;25.222;2023-04-28T09:02:32;100538.81;;;17.12;75.72
8641;BME280;4358;42.100;25.222;2023-04-28T09:04:59;100551.16;;;16.82;77.63
8641;BME280;4358;42.100;25.222;2023-04-28T09:07:25;100539.13;;;16.66;77.64
8641;BME280;4358;42.100;25.222;2023-04-28T09:10:15;100547.78;;;16.58;78.05
8641;BME280;4358;42.100;25.222;2023-04-28T09:12:42;100536.06;;;16.70;78.51
8641;BME280;4358;42.100;25.222;2023-04-28T09:15:09;100536.97;;;16.48;78.43
8641;BME280;4358;42.100;25.222;2023-04-28T09:17:46;100538.06;;;16.46;79.51
8641;BME280;4358;42.100;25.222;2023-04-28T09:20:20;100530.22;;;16.65;78.34
8641;BME280;4358;42.100;25.222;2023-04-28T09:22:49;100529.34;;;17.08;77.25
8641;BME280;4358;42.100;25.222;2023-04-28T09:25:18;100535.31;;;16.79;75.92
8641;BME280;4358;42.100;25.222;2023-04-28T09:27:46;100527.59;;;16.43;76.83
8641;BME280;4358;42.100;25.222;2023-04-28T09:30:13;100522.28;;;15.98;78.57
8641;BME280;4358;42.100;25.222;2023-04-28T09:32:40;100521.66;;;16.17;77.91
8641;BME280;4358;42.100;25.222;2023-04-28T09:35:07;100518.25;;;16.26;79.27
8641;BME280;4358;42.100;25.222;2023-04-28T09:37:35;100522.06;;;16.67;78.28
8641;BME280;4358;42.100;25.222;2023-04-28T09:40:05;100520.19;;;16.89;77.44
8641;BME280;4358;42.100;25.222;2023-04-28T09:42:35;100508.94;;;16.96;75.80
8641;BME280;4358;42.100;25.222;2023-04-28T09:45:07;100507.78;;;17.30;75.98
8641;BME280;4358;42.100;25.222;2023-04-28T09:47:35;100502.28;;;17.31;75.59
8641;BME280;4358;42.100;25.222;2023-04-28T09:50:04;100502.06;;;17.44;74.90
8641;BME280;4358;42.100;25.222;2023-04-28T09:52:34;100490.41;;;17.55;74.38
8641;BME280;4358;42.100;25.222;2023-04-28T09:55:01;100498.28;;;17.67;74.84
8641;BME280;4358;42.100;25.222;2023-04-28T09:57:29;100489.44;;;17.76;75.97
8641;BME280;4358;42.100;25.222;2023-04-28T09:59:58;100474.44;;;18.04;75.00
8641;BME280;4358;42.100;25.222;2023-04-28T10:02:26;100480.41;;;17.77;73.68
8641;BME280;4358;42.100;25.222;2023-04-28T10:04:53;100464.09;;;18.00;74.80
8641;BME280;4358;42.100;25.222;2023-04-28T10:07:20;100479.19;;;18.01;75.50
8641;BME280;4358;42.100;25.222;2023-04-28T10:09:48;100466.78;;;18.00;73.70
8641;BME280;4358;42.100;25.222;2023-04-28T10:12:15;100467.69;;;18.29;73.58
8641;BME280;4358;42.100;25.222;2023-04-28T10:14:43;100475.44;;;18.13;73.07
8641;BME280;4358;42.100;25.222;2023-04-28T10:17:12;100469.91;;;17.74;73.78
8641;BME280;4358;42.100;25.222;2023-04-28T10:19:39;100458.97;;;17.97;75.65
8641;BME280;4358;42.100;25.222;2023-04-28T10:22:23;100460.63;;;18.38;75.09
8641;BME280;4358;42.100;25.222;2023-04-28T10:25:15;100462.03;;;18.32;75.38
8641;BME280;4358;42.100;25.222;2023-04-28T10:27:47;100448.66;;;18.51;72.05
8641;BME280;4358;42.100;25.222;2023-04-28T10:30:17;100450.53;;;18.60;70.57
8641;BME280;4358;42.100;25.222;2023-04-28T10:32:46;100447.09;;;18.58;70.08
8641;BME280;4358;42.100;25.222;2023-04-28T10:35:41;100439.59;;;18.91;69.39
8641;BME280;4358;42.100;25.222;2023-04-28T10:38:09;100441.00;;;18.95;68.30
8641;BME280;4358;42.100;25.222;2023-04-28T10:40:38;100440.13;;;19.23;66.92
8641;BME280;4358;42.100;25.222;2023-04-28T10:43:06;100437.81;;;19.48;66.33
8641;BME280;4358;42.100;25.222;2023-04-28T10:45:58;100429.16;;;19.54;64.27
8641;BME280;4358;42.100;25.222;2023-04-28T10:51:33;100432.44;;;20.12;59.55
8641;BME280;4358;42.100;25.222;2023-04-28T10:54:17;100431.78;;;20.27;58.69
8641;BME280;4358;42.100;25.222;2023-04-28T10:57:19;100422.19;;;20.15;56.15
8641;BME280;4358;42.100;25.222;2023-04-28T10:59:49;100424.81;;;20.35;54.93
8641;BME280;4358;42.100;25.222;2023-04-28T11:02:35;100432.75;;;20.54;53.68
8641;BME280;4358;42.100;25.222;2023-04-28T11:05:12;100415.72;;;20.71;52.62
8641;BME280;4358;42.100;25.222;2023-04-28T11:13:51;100416.09;;;20.76;49.70
8641;BME280;4358;42.100;25.222;2023-04-28T11:16:20;100415.81;;;21.05;49.71
8641;BME280;4358;42.100;25.222;2023-04-28T11:18:52;100413.34;;;21.29;47.77
8641;BME280;4358;42.100;25.222;2023-04-28T11:21:20;100401.16;;;21.51;45.89
8641;BME280;4358;42.100;25.222;2023-04-28T11:23:48;100398.16;;;21.28;45.56
8641;BME280;4358;42.100;25.222;2023-04-28T11:26:16;100400.97;;;20.83;46.74
8641;BME280;4358;42.100;25.222;2023-04-28T11:28:51;100408.41;;;21.07;45.69
8641;BME280;4358;42.100;25.222;2023-04-28T11:31:18;100394.97;;;21.33;44.64
8641;BME280;4358;42.100;25.222;2023-04-28T11:33:53;100389.00;;;21.55;45.17
8641;BME280;4358;42.100;25.222;2023-04-28T11:36:22;100385.38;;;21.38;43.78
8641;BME280;4358;42.100;25.222;2023-04-28T11:38:50;100390.59;;;21.74;44.00
8641;BME280;4358;42.100;25.222;2023-04-28T11:41:17;100396.59;;;21.93;43.26
8641;BME280;4358;42.100;25.222;2023-04-28T11:43:44;100394.81;;;21.68;44.73
8641;BME280;4358;42.100;25.222;2023-04-28T11:46:15;100394.06;;;21.58;43.99
8641;BME280;4358;42.100;25.222;2023-04-28T11:48:42;100393.88;;;21.85;43.06
8641;BME280;4358;42.100;25.222;2023-04-28T11:51:09;100405.13;;;21.73;42.31
8641;BME280;4358;42.100;25.222;2023-04-28T11:53:40;100396.06;;;21.48;42.44
8641;BME280;4358;42.100;25.222;2023-04-28T11:56:09;100394.31;;;21.13;43.65
8641;BME280;4358;42.100;25.222;2023-04-28T11:58:37;100378.44;;;20.66;43.89
8641;BME280;4358;42.100;25.222;2023-04-28T12:01:08;100389.56;;;20.89;43.71
8641;BME280;4358;42.100;25.222;2023-04-28T12:03:45;100385.59;;;21.01;42.89
8641;BME280;4358;42.100;25.222;2023-04-28T12:06:16;100369.16;;;21.12;44.08
8641;BME280;4358;42.100;25.222;2023-04-28T12:08:43;100369.03;;;20.96;43.28
8641;BME280;4358;42.100;25.222;2023-04-28T12:11:12;100365.66;;;20.33;44.69
8641;BME280;4358;42.100;25.222;2023-04-28T12:13:40;100363.34;;;20.38;44.12
8641;BME280;4358;42.100;25.222;2023-04-28T12:16:07;100343.63;;;20.38;44.05
8641;BME280;4358;42.100;25.222;2023-04-28T12:18:35;100337.56;;;20.26;45.54
8641;BME280;4358;42.100;25.222;2023-04-28T12:21:03;100365.28;;;20.46;45.58
8641;BME280;4358;42.100;25.222;2023-04-28T12:23:31;100358.59;;;20.93;45.39
8641;BME280;4358;42.100;25.222;2023-04-28T12:25:58;100341.09;;;21.05;44.25
8641;BME280;4358;42.100;25.222;2023-04-28T12:28:36;100340.81;;;21.34;43.59
8641;BME280;4358;42.100;25.222;2023-04-28T12:31:05;100344.13;;;21.62;42.86
8641;BME280;4358;42.100;25.222;2023-04-28T12:33:33;100336.06;;;21.78;41.26
8641;BME280;4358;42.100;25.222;2023-04-28T12:36:03;100331.28;;;22.14;40.94
8641;BME280;4358;42.100;25.222;2023-04-28T12:38:30;100334.69;;;22.40;40.41
8641;BME280;4358;42.100;25.222;2023-04-28T12:40:57;100323.88;;;22.57;39.96
8641;BME280;4358;42.100;25.222;2023-04-28T12:43:24;100318.31;;;22.58;40.20
8641;BME280;4358;42.100;25.222;2023-04-28T12:45:54;100318.66;;;22.39;39.46
8641;BME280;4358;42.100;25.222;2023-04-28T12:48:21;100308.66;;;22.07;40.57
8641;BME280;4358;42.100;25.222;2023-04-28T12:50:49;100311.44;;;21.81;40.75
8641;BME280;4358;42.100;25.222;2023-04-28T12:53:16;100301.91;;;22.03;40.88
8641;BME280;4358;42.100;25.222;2023-04-28T12:55:43;100301.06;;;22.11;39.74
8641;BME280;4358;42.100;25.222;2023-04-28T12:58:10;100297.88;;;22.23;40.47
8641;BME280;4358;42.100;25.222;2023-04-28T13:00:36;100295.31;;;21.98;39.55
8641;BME280;4358;42.100;25.222;2023-04-28T13:03:05;100286.75;;;21.60;40.75
8641;BME280;4358;42.100;25.222;2023-04-28T13:05:31;100295.50;;;21.20;40.55
8641;BME280;4358;42.100;25.222;2023-04-28T13:07:59;100286.63;;;20.76;41.88
8641;BME280;4358;42.100;25.222;2023-04-28T13:10:26;100276.97;;;20.48;42.17
8641;BME280;4358;42.100;25.222;2023-04-28T13:12:54;100273.69;;;20.36;43.37
8641;BME280;4358;42.100;25.222;2023-04-28T13:15:20;100266.28;;;20.38;43.46